sensor_id;sensor_type;location;lat;lon;timestamp;P1;durP1;ratioP1;P2;durP2;ratioP2
70635;SDS011;58206;47.310;19.502;2023-09-18T00:01:28;2.75;;;1.48;;
70635;SDS011;58206;47.310;19.502;2023-09-18T00:04:12;1.35;;;0.82;;
70635;SDS011;58206;47.310;19.502;2023-09-18T00:06:57;1.63;;;0.93;;
70635;SDS011;58206;47.310;19.502;2023-09-18T00:09:41;1.10;;;0.55;;
70635;SDS011;58206;47.310;19.502;2023-09-18T00:12:25;7.13;;;1.48;;
70635;SDS011;58206;47.310;19.502;2023-09-18T00:15:10;1.08;;;0.43;;
70635;SDS011;58206;47.310;19.502;2023-09-18T00:17:54;2.97;;;1.27;;
70635;SDS011;58206;47.310;19.502;2023-09-18T00:20:39;1.70;;;0.97;;
70635;SDS011;58206;47.310;19.502;2023-09-18T00:23:25;1.08;;;0.55;;
70635;SDS011;58206;47.310;19.502;2023-09-18T00:26:09;1.63;;;0.60;;
70635;SDS011;58206;47.310;19.502;2023-09-18T00:28:54;1.20;;;0.45;;
70635;SDS011;58206;47.310;19.502;2023-09-18T00:31:38;0.82;;;0.40;;
70635;SDS011;58206;47.310;19.502;2023-09-18T00:34:23;1.90;;;0.80;;
70635;SDS011;58206;47.310;19.502;2023-09-18T00:37:07;1.63;;;0.95;;
70635;SDS011;58206;47.310;19.502;2023-09-18T00:39:51;0.85;;;0.43;;
70635;SDS011;58206;47.310;19.502;2023-09-18T00:42:36;1.80;;;0.68;;
70635;SDS011;58206;47.310;19.502;2023-09-18T00:45:20;1.92;;;0.70;;
70635;SDS011;58206;47.310;19.502;2023-09-18T00:48:05;0.73;;;0.40;;
70635;SDS011;58206;47.310;19.502;2023-09-18T00:50:50;1.92;;;1.20;;
70635;SDS011;58206;47.310;19.502;2023-09-18T00:53:34;1.30;;;0.57;;
70635;SDS011;58206;47.310;19.502;2023-09-18T00:56:19;1.40;;;0.43;;
70635;SDS011;58206;47.310;19.502;2023-09-18T00:59:04;0.47;;;0.17;;
70635;SDS011;58206;47.310;19.502;2023-09-18T01:01:48;3.17;;;1.27;;
70635;SDS011;58206;47.310;19.502;2023-09-18T01:04:34;1.85;;;0.75;;
70635;SDS011;58206;47.310;19.502;2023-09-18T01:07:18;1.95;;;1.42;;
70635;SDS011;58206;47.310;19.502;2023-09-18T01:10:03;3.30;;;1.25;;
70635;SDS011;58206;47.310;19.502;2023-09-18T01:13:04;1.42;;;0.68;;
70635;SDS011;58206;47.310;19.502;2023-09-18T01:15:58;0.97;;;0.43;;
70635;SDS011;58206;47.310;19.502;2023-09-18T01:18:48;0.65;;;0.25;;
70635;SDS011;58206;47.310;19.502;2023-09-18T01:21:33;1.20;;;0.60;;
70635;SDS011;58206;47.310;19.502;2023-09-18T01:24:17;2.80;;;1.10;;
70635;SDS011;58206;47.310;19.502;2023-09-18T01:27:02;1.08;;;0.50;;
70635;SDS011;58206;47.310;19.502;2023-09-18T01:29:48;1.17;;;0.53;;
70635;SDS011;58206;47.310;19.502;2023-09-18T01:32:33;0.82;;;0.32;;
70635;SDS011;58206;47.310;19.502;2023-09-18T01:35:19;0.60;;;0.32;;
70635;SDS011;58206;47.310;19.502;2023-09-18T01:38:03;1.33;;;0.70;;
70635;SDS011;58206;47.310;19.502;2023-09-18T01:40:49;2.33;;;0.75;;
70635;SDS011;58206;47.310;19.502;2023-09-18T01:43:33;0.90;;;0.40;;
70635;SDS011;58206;47.310;19.502;2023-09-18T01:46:19;1.25;;;0.73;;
70635;SDS011;58206;47.310;19.502;2023-09-18T01:49:04;0.93;;;0.52;;
70635;SDS011;58206;47.310;19.502;2023-09-18T01:51:50;2.97;;;1.35;;
70635;SDS011;58206;47.310;19.502;2023-09-18T01:54:35;3.13;;;1.42;;
70635;SDS011;58206;47.310;19.502;2023-09-18T01:57:19;3.93;;;1.97;;
70635;SDS011;58206;47.310;19.502;2023-09-18T02:00:04;2.00;;;1.02;;
70635;SDS011;58206;47.310;19.502;2023-09-18T02:02:56;1.30;;;0.65;;
70635;SDS011;58206;47.310;19.502;2023-09-18T02:05:41;2.30;;;0.80;;
70635;SDS011;58206;47.310;19.502;2023-09-18T02:08:26;0.63;;;0.32;;
70635;SDS011;58206;47.310;19.502;2023-09-18T02:11:10;1.97;;;1.33;;
70635;SDS011;58206;47.310;19.502;2023-09-18T02:13:54;1.60;;;1.25;;
70635;SDS011;58206;47.310;19.502;2023-09-18T02:16:41;0.95;;;0.40;;
70635;SDS011;58206;47.310;19.502;2023-09-18T02:19:25;1.45;;;0.77;;
70635;SDS011;58206;47.310;19.502;2023-09-18T02:22:10;2.10;;;0.47;;
70635;SDS011;58206;47.310;19.502;2023-09-18T02:24:54;1.47;;;0.83;;
70635;SDS011;58206;47.310;19.502;2023-09-18T02:27:38;1.85;;;1.10;;
70635;SDS011;58206;47.310;19.502;2023-09-18T02:30:23;2.15;;;1.50;;
70635;SDS011;58206;47.310;19.502;2023-09-18T02:33:07;1.73;;;1.02;;
70635;SDS011;58206;47.310;19.502;2023-09-18T02:35:53;1.20;;;0.63;;
70635;SDS011;58206;47.310;19.502;2023-09-18T02:38:37;0.30;;;0.10;;
70635;SDS011;58206;47.310;19.502;2023-09-18T02:41:21;2.15;;;0.98;;
70635;SDS011;58206;47.310;19.502;2023-09-18T02:44:06;0.90;;;0.45;;
70635;SDS011;58206;47.310;19.502;2023-09-18T02:46:50;1.52;;;0.90;;
70635;SDS011;58206;47.310;19.502;2023-09-18T02:49:35;1.05;;;0.40;;
70635;SDS011;58206;47.310;19.502;2023-09-18T02:52:19;1.60;;;1.00;;
70635;SDS011;58206;47.310;19.502;2023-09-18T02:55:03;0.77;;;0.22;;
70635;SDS011;58206;47.310;19.502;2023-09-18T02:57:48;2.85;;;1.40;;
70635;SDS011;58206;47.310;19.502;2023-09-18T03:00:33;0.70;;;0.20;;
70635;SDS011;58206;47.310;19.502;2023-09-18T03:03:18;1.15;;;0.63;;
70635;SDS011;58206;47.310;19.502;2023-09-18T03:06:02;1.63;;;0.77;;
70635;SDS011;58206;47.310;19.502;2023-09-18T03:08:47;1.63;;;0.77;;
70635;SDS011;58206;47.310;19.502;2023-09-18T03:11:32;1.13;;;0.63;;
70635;SDS011;58206;47.310;19.502;2023-09-18T03:14:17;2.88;;;1.63;;
70635;SDS011;58206;47.310;19.502;2023-09-18T03:17:01;2.08;;;1.20;;
70635;SDS011;58206;47.310;19.502;2023-09-18T03:19:49;0.60;;;0.30;;
70635;SDS011;58206;47.310;19.502;2023-09-18T03:22:34;1.27;;;0.55;;
70635;SDS011;58206;47.310;19.502;2023-09-18T03:25:19;12.82;;;1.52;;
70635;SDS011;58206;47.310;19.502;2023-09-18T03:28:03;1.35;;;0.52;;
70635;SDS011;58206;47.310;19.502;2023-09-18T03:30:50;3.50;;;0.85;;
70635;SDS011;58206;47.310;19.502;2023-09-18T03:33:38;1.07;;;0.67;;
70635;SDS011;58206;47.310;19.502;2023-09-18T03:36:22;3.63;;;1.17;;
70635;SDS011;58206;47.310;19.502;2023-09-18T03:39:09;1.45;;;0.75;;
70635;SDS011;58206;47.310;19.502;2023-09-18T03:41:54;0.60;;;0.20;;
70635;SDS011;58206;47.310;19.502;2023-09-18T03:44:38;1.67;;;1.20;;
70635;SDS011;58206;47.310;19.502;2023-09-18T03:47:22;1.70;;;0.50;;
70635;SDS011;58206;47.310;19.502;2023-09-18T03:50:08;1.65;;;1.10;;
70635;SDS011;58206;47.310;19.502;2023-09-18T03:52:53;1.27;;;0.65;;
70635;SDS011;58206;47.310;19.502;2023-09-18T03:55:37;1.35;;;0.82;;
70635;SDS011;58206;47.310;19.502;2023-09-18T03:58:21;0.50;;;0.13;;
70635;SDS011;58206;47.310;19.502;2023-09-18T04:01:07;0.90;;;0.40;;
70635;SDS011;58206;47.310;19.502;2023-09-18T04:03:51;1.48;;;0.60;;
70635;SDS011;58206;47.310;19.502;2023-09-18T04:06:37;1.40;;;0.57;;
70635;SDS011;58206;47.310;19.502;2023-09-18T04:09:22;1.55;;;0.57;;
70635;SDS011;58206;47.310;19.502;2023-09-18T04:12:06;2.50;;;1.17;;
70635;SDS011;58206;47.310;19.502;2023-09-18T04:14:51;0.83;;;0.40;;
70635;SDS011;58206;47.310;19.502;2023-09-18T04:17:35;2.95;;;1.10;;
70635;SDS011;58206;47.310;19.502;2023-09-18T04:20:20;0.65;;;0.30;;
70635;SDS011;58206;47.310;19.502;2023-09-18T04:23:18;1.67;;;0.93;;
70635;SDS011;58206;47.310;19.502;2023-09-18T04:26:03;0.80;;;0.50;;
70635;SDS011;58206;47.310;19.502;2023-09-18T04:28:47;1.33;;;0.83;;
70635;SDS011;58206;47.310;19.502;2023-09-18T04:31:32;1.33;;;0.75;;
70635;SDS011;58206;47.310;19.502;2023-09-18T04:34:17;0.95;;;0.30;;
70635;SDS011;58206;47.310;19.502;2023-09-18T04:37:02;1.63;;;0.50;;
70635;SDS011;58206;47.310;19.502;2023-09-18T04:39:47;1.83;;;0.75;;
70635;SDS011;58206;47.310;19.502;2023-09-18T04:42:32;1.50;;;0.63;;
70635;SDS011;58206;47.310;19.502;2023-09-18T04:45:16;1.35;;;0.65;;
70635;SDS011;58206;47.310;19.502;2023-09-18T04:48:00;1.77;;;0.90;;
70635;SDS011;58206;47.310;19.502;2023-09-18T04:50:45;4.70;;;0.55;;
70635;SDS011;58206;47.310;19.502;2023-09-18T04:53:30;1.27;;;0.55;;
70635;SDS011;58206;47.310;19.502;2023-09-18T04:56:14;1.87;;;1.23;;
70635;SDS011;58206;47.310;19.502;2023-09-18T04:58:59;1.80;;;0.90;;
70635;SDS011;58206;47.310;19.502;2023-09-18T05:01:43;1.73;;;0.75;;
70635;SDS011;58206;47.310;19.502;2023-09-18T05:04:28;0.80;;;0.40;;
70635;SDS011;58206;47.310;19.502;2023-09-18T05:07:14;3.45;;;1.48;;
70635;SDS011;58206;47.310;19.502;2023-09-18T05:09:58;1.60;;;0.47;;
70635;SDS011;58206;47.310;19.502;2023-09-18T05:12:43;1.40;;;0.70;;
70635;SDS011;58206;47.310;19.502;2023-09-18T05:15:29;1.05;;;0.52;;
70635;SDS011;58206;47.310;19.502;2023-09-18T05:18:13;1.98;;;1.55;;
70635;SDS011;58206;47.310;19.502;2023-09-18T05:20:58;1.83;;;0.88;;
70635;SDS011;58206;47.310;19.502;2023-09-18T05:23:43;3.37;;;1.40;;
70635;SDS011;58206;47.310;19.502;2023-09-18T05:26:27;1.63;;;0.85;;
70635;SDS011;58206;47.310;19.502;2023-09-18T05:29:13;1.50;;;0.75;;
70635;SDS011;58206;47.310;19.502;2023-09-18T05:31:57;2.13;;;1.10;;
70635;SDS011;58206;47.310;19.502;2023-09-18T05:34:42;0.95;;;0.45;;
70635;SDS011;58206;47.310;19.502;2023-09-18T05:37:26;1.47;;;0.93;;
70635;SDS011;58206;47.310;19.502;2023-09-18T05:40:11;0.80;;;0.52;;
70635;SDS011;58206;47.310;19.502;2023-09-18T05:42:55;1.42;;;0.50;;
70635;SDS011;58206;47.310;19.502;2023-09-18T05:45:40;3.00;;;1.88;;
70635;SDS011;58206;47.310;19.502;2023-09-18T05:48:24;8.68;;;1.63;;
70635;SDS011;58206;47.310;19.502;2023-09-18T05:51:10;1.73;;;0.87;;
70635;SDS011;58206;47.310;19.502;2023-09-18T05:53:54;2.25;;;1.17;;
70635;SDS011;58206;47.310;19.502;2023-09-18T05:56:39;3.38;;;1.52;;
70635;SDS011;58206;47.310;19.502;2023-09-18T05:59:23;2.15;;;0.98;;
70635;SDS011;58206;47.310;19.502;2023-09-18T06:02:07;2.88;;;1.55;;
70635;SDS011;58206;47.310;19.502;2023-09-18T06:04:59;12.80;;;1.47;;
70635;SDS011;58206;47.310;19.502;2023-09-18T06:07:50;2.22;;;1.10;;
70635;SDS011;58206;47.310;19.502;2023-09-18T06:10:34;2.83;;;1.55;;
70635;SDS011;58206;47.310;19.502;2023-09-18T06:13:19;3.40;;;1.30;;
70635;SDS011;58206;47.310;19.502;2023-09-18T06:16:04;3.72;;;1.98;;
70635;SDS011;58206;47.310;19.502;2023-09-18T06:18:52;3.00;;;1.60;;
70635;SDS011;58206;47.310;19.502;2023-09-18T06:21:37;2.90;;;1.65;;
70635;SDS011;58206;47.310;19.502;2023-09-18T06:24:22;2.80;;;1.38;;
70635;SDS011;58206;47.310;19.502;2023-09-18T06:27:06;4.18;;;1.77;;
70635;SDS011;58206;47.310;19.502;2023-09-18T06:29:51;3.40;;;1.75;;
70635;SDS011;58206;47.310;19.502;2023-09-18T06:32:35;3.07;;;1.43;;
70635;SDS011;58206;47.310;19.502;2023-09-18T06:35:21;2.63;;;1.42;;
70635;SDS011;58206;47.310;19.502;2023-09-18T06:38:06;3.08;;;1.40;;
70635;SDS011;58206;47.310;19.502;2023-09-18T06:40:51;3.63;;;2.20;;
70635;SDS011;58206;47.310;19.502;2023-09-18T06:43:36;3.28;;;1.73;;
70635;SDS011;58206;47.310;19.502;2023-09-18T06:46:20;3.33;;;1.60;;
70635;SDS011;58206;47.310;19.502;2023-09-18T06:49:05;3.97;;;1.95;;
70635;SDS011;58206;47.310;19.502;2023-09-18T06:51:49;6.78;;;2.15;;
70635;SDS011;58206;47.310;19.502;2023-09-18T06:54:34;5.63;;;2.03;;
70635;SDS011;58206;47.310;19.502;2023-09-18T06:57:18;3.22;;;1.63;;
70635;SDS011;58206;47.310;19.502;2023-09-18T07:00:05;4.13;;;1.87;;
70635;SDS011;58206;47.310;19.502;2023-09-18T07:02:49;3.83;;;1.95;;
70635;SDS011;58206;47.310;19.502;2023-09-18T07:05:34;3.65;;;1.65;;
70635;SDS011;58206;47.310;19.502;2023-09-18T07:08:18;3.47;;;1.63;;
70635;SDS011;58206;47.310;19.502;2023-09-18T07:11:06;3.15;;;1.40;;
70635;SDS011;58206;47.310;19.502;2023-09-18T07:13:51;3.60;;;1.53;;
70635;SDS011;58206;47.310;19.502;2023-09-18T07:16:35;3.50;;;2.00;;
70635;SDS011;58206;47.310;19.502;2023-09-18T07:19:20;4.57;;;2.33;;
70635;SDS011;58206;47.310;19.502;2023-09-18T07:22:04;4.05;;;2.03;;
70635;SDS011;58206;47.310;19.502;2023-09-18T07:24:48;6.55;;;2.60;;
70635;SDS011;58206;47.310;19.502;2023-09-18T07:27:33;3.30;;;1.80;;
70635;SDS011;58206;47.310;19.502;2023-09-18T07:30:18;3.55;;;1.98;;
70635;SDS011;58206;47.310;19.502;2023-09-18T07:33:07;3.30;;;1.60;;
70635;SDS011;58206;47.310;19.502;2023-09-18T07:35:51;3.55;;;1.80;;
70635;SDS011;58206;47.310;19.502;2023-09-18T07:38:36;6.03;;;2.83;;
70635;SDS011;58206;47.310;19.502;2023-09-18T07:41:27;3.97;;;2.23;;
70635;SDS011;58206;47.310;19.502;2023-09-18T07:44:11;4.93;;;2.13;;
70635;SDS011;58206;47.310;19.502;2023-09-18T07:46:56;4.78;;;2.53;;
70635;SDS011;58206;47.310;19.502;2023-09-18T07:49:40;3.70;;;1.85;;
70635;SDS011;58206;47.310;19.502;2023-09-18T07:52:24;3.95;;;1.90;;
70635;SDS011;58206;47.310;19.502;2023-09-18T07:55:09;5.50;;;2.13;;
70635;SDS011;58206;47.310;19.502;2023-09-18T07:57:54;4.18;;;2.45;;
70635;SDS011;58206;47.310;19.502;2023-09-18T08:00:38;5.15;;;2.72;;
70635;SDS011;58206;47.310;19.502;2023-09-18T08:03:23;3.83;;;2.40;;
70635;SDS011;58206;47.310;19.502;2023-09-18T08:06:09;4.45;;;2.63;;
70635;SDS011;58206;47.310;19.502;2023-09-18T08:08:55;4.87;;;2.37;;
70635;SDS011;58206;47.310;19.502;2023-09-18T08:11:40;4.50;;;2.40;;
70635;SDS011;58206;47.310;19.502;2023-09-18T08:14:26;6.30;;;2.15;;
70635;SDS011;58206;47.310;19.502;2023-09-18T08:17:11;4.35;;;2.30;;
70635;SDS011;58206;47.310;19.502;2023-09-18T08:19:56;3.95;;;2.30;;
70635;SDS011;58206;47.310;19.502;2023-09-18T08:22:43;4.00;;;2.43;;
70635;SDS011;58206;47.310;19.502;2023-09-18T08:25:28;5.35;;;3.15;;
70635;SDS011;58206;47.310;19.502;2023-09-18T08:28:12;4.63;;;2.38;;
70635;SDS011;58206;47.310;19.502;2023-09-18T08:30:59;4.70;;;2.22;;
70635;SDS011;58206;47.310;19.502;2023-09-18T08:33:46;4.47;;;2.78;;
70635;SDS011;58206;47.310;19.502;2023-09-18T08:36:30;5.50;;;3.47;;
70635;SDS011;58206;47.310;19.502;2023-09-18T08:39:16;9.73;;;2.42;;
70635;SDS011;58206;47.310;19.502;2023-09-18T08:42:04;4.53;;;2.42;;
70635;SDS011;58206;47.310;19.502;2023-09-18T08:44:51;4.65;;;3.22;;
70635;SDS011;58206;47.310;19.502;2023-09-18T08:47:37;4.85;;;2.58;;
70635;SDS011;58206;47.310;19.502;2023-09-18T08:50:23;5.00;;;3.33;;
70635;SDS011;58206;47.310;19.502;2023-09-18T08:53:09;7.28;;;2.47;;
70635;SDS011;58206;47.310;19.502;2023-09-18T08:55:53;5.55;;;2.60;;
70635;SDS011;58206;47.310;19.502;2023-09-18T08:58:42;4.10;;;2.63;;
70635;SDS011;58206;47.310;19.502;2023-09-18T09:01:27;5.18;;;3.30;;
70635;SDS011;58206;47.310;19.502;2023-09-18T09:04:11;5.73;;;3.13;;
70635;SDS011;58206;47.310;19.502;2023-09-18T09:06:59;4.63;;;2.55;;
70635;SDS011;58206;47.310;19.502;2023-09-18T09:09:43;5.30;;;3.00;;
70635;SDS011;58206;47.310;19.502;2023-09-18T09:15:45;5.15;;;3.22;;
70635;SDS011;58206;47.310;19.502;2023-09-18T09:18:30;4.53;;;2.93;;
70635;SDS011;58206;47.310;19.502;2023-09-18T09:21:18;5.43;;;3.10;;
70635;SDS011;58206;47.310;19.502;2023-09-18T09:24:04;4.40;;;2.80;;
70635;SDS011;58206;47.310;19.502;2023-09-18T09:27:07;4.10;;;2.53;;
70635;SDS011;58206;47.310;19.502;2023-09-18T09:30:01;3.90;;;2.20;;
70635;SDS011;58206;47.310;19.502;2023-09-18T09:32:49;4.43;;;2.77;;
70635;SDS011;58206;47.310;19.502;2023-09-18T09:35:36;5.57;;;2.75;;
70635;SDS011;58206;47.310;19.502;2023-09-18T09:38:20;4.28;;;2.08;;
70635;SDS011;58206;47.310;19.502;2023-09-18T09:41:06;3.85;;;1.75;;
70635;SDS011;58206;47.310;19.502;2023-09-18T09:43:56;4.28;;;1.88;;
70635;SDS011;58206;47.310;19.502;2023-09-18T09:46:45;4.63;;;2.33;;
70635;SDS011;58206;47.310;19.502;2023-09-18T09:49:29;4.57;;;1.90;;
70635;SDS011;58206;47.310;19.502;2023-09-18T09:52:24;3.78;;;1.88;;
70635;SDS011;58206;47.310;19.502;2023-09-18T09:58:07;4.50;;;1.73;;
70635;SDS011;58206;47.310;19.502;2023-09-18T10:00:55;3.67;;;1.77;;
70635;SDS011;58206;47.310;19.502;2023-09-18T10:03:44;5.10;;;2.47;;
70635;SDS011;58206;47.310;19.502;2023-09-18T10:06:28;3.97;;;1.73;;
70635;SDS011;58206;47.310;19.502;2023-09-18T10:09:14;3.58;;;1.80;;
70635;SDS011;58206;47.310;19.502;2023-09-18T10:11:59;3.42;;;1.58;;
70635;SDS011;58206;47.310;19.502;2023-09-18T10:14:45;3.53;;;1.73;;
70635;SDS011;58206;47.310;19.502;2023-09-18T10:17:32;3.50;;;1.90;;
70635;SDS011;58206;47.310;19.502;2023-09-18T10:20:21;4.82;;;2.35;;
70635;SDS011;58206;47.310;19.502;2023-09-18T10:23:06;4.47;;;2.42;;
70635;SDS011;58206;47.310;19.502;2023-09-18T10:25:53;4.20;;;1.88;;
70635;SDS011;58206;47.310;19.502;2023-09-18T10:28:39;4.00;;;1.80;;
70635;SDS011;58206;47.310;19.502;2023-09-18T10:31:25;5.32;;;2.88;;
70635;SDS011;58206;47.310;19.502;2023-09-18T10:34:12;4.03;;;1.38;;
70635;SDS011;58206;47.310;19.502;2023-09-18T10:37:00;4.68;;;1.92;;
70635;SDS011;58206;47.310;19.502;2023-09-18T10:39:44;4.10;;;1.70;;
70635;SDS011;58206;47.310;19.502;2023-09-18T10:42:33;7.70;;;1.80;;
70635;SDS011;58206;47.310;19.502;2023-09-18T10:45:18;4.30;;;2.17;;
70635;SDS011;58206;47.310;19.502;2023-09-18T10:48:02;4.20;;;2.08;;
70635;SDS011;58206;47.310;19.502;2023-09-18T10:50:47;4.15;;;2.03;;
70635;SDS011;58206;47.310;19.502;2023-09-18T10:53:32;2.90;;;1.52;;
70635;SDS011;58206;47.310;19.502;2023-09-18T10:56:20;3.70;;;1.67;;
70635;SDS011;58206;47.310;19.502;2023-09-18T10:59:06;4.07;;;2.17;;
70635;SDS011;58206;47.310;19.502;2023-09-18T11:01:51;3.17;;;1.60;;
70635;SDS011;58206;47.310;19.502;2023-09-18T11:04:37;3.63;;;1.50;;
70635;SDS011;58206;47.310;19.502;2023-09-18T11:07:22;4.10;;;2.00;;
70635;SDS011;58206;47.310;19.502;2023-09-18T11:13:39;2.95;;;1.23;;
70635;SDS011;58206;47.310;19.502;2023-09-18T11:19:12;3.45;;;1.73;;
70635;SDS011;58206;47.310;19.502;2023-09-18T11:22:07;5.07;;;1.80;;
70635;SDS011;58206;47.310;19.502;2023-09-18T11:24:52;3.27;;;1.37;;
70635;SDS011;58206;47.310;19.502;2023-09-18T11:27:52;4.32;;;2.70;;
70635;SDS011;58206;47.310;19.502;2023-09-18T11:30:39;2.83;;;0.93;;
70635;SDS011;58206;47.310;19.502;2023-09-18T11:33:32;6.80;;;1.92;;
70635;SDS011;58206;47.310;19.502;2023-09-18T11:39:07;4.07;;;2.17;;
70635;SDS011;58206;47.310;19.502;2023-09-18T11:41:57;3.47;;;1.60;;
70635;SDS011;58206;47.310;19.502;2023-09-18T11:44:50;3.33;;;1.48;;
70635;SDS011;58206;47.310;19.502;2023-09-18T11:50:56;6.63;;;1.77;;
70635;SDS011;58206;47.310;19.502;2023-09-18T11:53:44;5.50;;;3.03;;
70635;SDS011;58206;47.310;19.502;2023-09-18T11:56:29;4.32;;;2.17;;
70635;SDS011;58206;47.310;19.502;2023-09-18T11:59:13;3.70;;;2.15;;
70635;SDS011;58206;47.310;19.502;2023-09-18T12:01:58;3.28;;;1.40;;
70635;SDS011;58206;47.310;19.502;2023-09-18T12:04:50;5.25;;;1.80;;
70635;SDS011;58206;47.310;19.502;2023-09-18T12:07:34;5.23;;;1.80;;
70635;SDS011;58206;47.310;19.502;2023-09-18T12:10:19;3.92;;;1.95;;
70635;SDS011;58206;47.310;19.502;2023-09-18T12:13:07;3.50;;;1.65;;
70635;SDS011;58206;47.310;19.502;2023-09-18T12:16:02;5.10;;;2.40;;
70635;SDS011;58206;47.310;19.502;2023-09-18T12:18:49;4.47;;;1.58;;
70635;SDS011;58206;47.310;19.502;2023-09-18T12:21:39;3.73;;;1.70;;
70635;SDS011;58206;47.310;19.502;2023-09-18T12:24:24;4.20;;;2.15;;
70635;SDS011;58206;47.310;19.502;2023-09-18T12:27:09;4.20;;;2.08;;
70635;SDS011;58206;47.310;19.502;2023-09-18T12:29:54;3.47;;;1.50;;
70635;SDS011;58206;47.310;19.502;2023-09-18T12:32:39;4.88;;;1.85;;
70635;SDS011;58206;47.310;19.502;2023-09-18T12:35:23;4.60;;;2.00;;
70635;SDS011;58206;47.310;19.502;2023-09-18T12:38:16;5.50;;;1.80;;
70635;SDS011;58206;47.310;19.502;2023-09-18T12:41:03;4.70;;;1.95;;
70635;SDS011;58206;47.310;19.502;2023-09-18T12:43:50;4.07;;;2.00;;
70635;SDS011;58206;47.310;19.502;2023-09-18T12:46:35;7.00;;;2.08;;
70635;SDS011;58206;47.310;19.502;2023-09-18T12:49:20;7.27;;;2.20;;
70635;SDS011;58206;47.310;19.502;2023-09-18T12:52:05;9.20;;;2.92;;
70635;SDS011;58206;47.310;19.502;2023-09-18T12:54:52;6.07;;;2.95;;
70635;SDS011;58206;47.310;19.502;2023-09-18T12:57:39;4.72;;;1.75;;
70635;SDS011;58206;47.310;19.502;2023-09-18T13:00:24;3.72;;;1.65;;
70635;SDS011;58206;47.310;19.502;2023-09-18T13:03:12;5.00;;;2.17;;
70635;SDS011;58206;47.310;19.502;2023-09-18T13:06:10;4.78;;;2.03;;
70635;SDS011;58206;47.310;19.502;2023-09-18T13:08:55;5.28;;;1.98;;
70635;SDS011;58206;47.310;19.502;2023-09-18T13:11:53;4.00;;;2.20;;
70635;SDS011;58206;47.310;19.502;2023-09-18T13:14:56;5.40;;;2.58;;
70635;SDS011;58206;47.310;19.502;2023-09-18T13:17:42;4.07;;;1.60;;
70635;SDS011;58206;47.310;19.502;2023-09-18T13:20:29;4.22;;;2.05;;
70635;SDS011;58206;47.310;19.502;2023-09-18T13:23:14;7.03;;;2.97;;
70635;SDS011;58206;47.310;19.502;2023-09-18T13:25:59;4.63;;;1.92;;
70635;SDS011;58206;47.310;19.502;2023-09-18T13:28:44;4.25;;;1.92;;
70635;SDS011;58206;47.310;19.502;2023-09-18T13:31:28;4.77;;;1.83;;
70635;SDS011;58206;47.310;19.502;2023-09-18T13:34:15;4.38;;;2.20;;
70635;SDS011;58206;47.310;19.502;2023-09-18T13:37:03;6.05;;;2.55;;
70635;SDS011;58206;47.310;19.502;2023-09-18T13:39:48;3.47;;;1.25;;
70635;SDS011;58206;47.310;19.502;2023-09-18T13:42:32;4.50;;;1.90;;
70635;SDS011;58206;47.310;19.502;2023-09-18T13:45:17;4.93;;;2.57;;
70635;SDS011;58206;47.310;19.502;2023-09-18T13:48:20;4.32;;;1.75;;
70635;SDS011;58206;47.310;19.502;2023-09-18T13:51:05;5.35;;;2.42;;
70635;SDS011;58206;47.310;19.502;2023-09-18T13:53:49;5.95;;;2.25;;
70635;SDS011;58206;47.310;19.502;2023-09-18T13:56:33;4.05;;;2.03;;
70635;SDS011;58206;47.310;19.502;2023-09-18T13:59:19;4.03;;;1.83;;
70635;SDS011;58206;47.310;19.502;2023-09-18T14:02:03;4.13;;;2.30;;
70635;SDS011;58206;47.310;19.502;2023-09-18T14:04:49;4.70;;;1.88;;
70635;SDS011;58206;47.310;19.502;2023-09-18T14:07:34;4.78;;;2.03;;
70635;SDS011;58206;47.310;19.502;2023-09-18T14:10:19;4.88;;;2.63;;
70635;SDS011;58206;47.310;19.502;2023-09-18T14:13:05;5.47;;;2.27;;
70635;SDS011;58206;47.310;19.502;2023-09-18T14:15:49;9.02;;;2.33;;
70635;SDS011;58206;47.310;19.502;2023-09-18T14:18:34;4.38;;;2.08;;
70635;SDS011;58206;47.310;19.502;2023-09-18T14:21:18;4.32;;;2.08;;
70635;SDS011;58206;47.310;19.502;2023-09-18T14:24:03;3.33;;;1.42;;
70635;SDS011;58206;47.310;19.502;2023-09-18T14:26:47;4.67;;;2.10;;
70635;SDS011;58206;47.310;19.502;2023-09-18T14:29:32;3.78;;;1.52;;
70635;SDS011;58206;47.310;19.502;2023-09-18T14:32:19;6.28;;;2.03;;
70635;SDS011;58206;47.310;19.502;2023-09-18T14:35:04;3.90;;;2.00;;
70635;SDS011;58206;47.310;19.502;2023-09-18T14:37:49;8.82;;;2.33;;
70635;SDS011;58206;47.310;19.502;2023-09-18T14:40:33;3.73;;;2.00;;
70635;SDS011;58206;47.310;19.502;2023-09-18T14:43:18;5.07;;;2.03;;
70635;SDS011;58206;47.310;19.502;2023-09-18T14:46:03;5.13;;;2.22;;
70635;SDS011;58206;47.310;19.502;2023-09-18T14:48:48;5.70;;;2.05;;
70635;SDS011;58206;47.310;19.502;2023-09-18T14:51:33;7.30;;;2.55;;
70635;SDS011;58206;47.310;19.502;2023-09-18T14:54:17;5.70;;;2.30;;
70635;SDS011;58206;47.310;19.502;2023-09-18T14:57:02;5.13;;;2.30;;
70635;SDS011;58206;47.310;19.502;2023-09-18T14:59:47;4.38;;;2.92;;
70635;SDS011;58206;47.310;19.502;2023-09-18T15:02:31;4.90;;;1.98;;
70635;SDS011;58206;47.310;19.502;2023-09-18T15:05:18;5.22;;;2.40;;
70635;SDS011;58206;47.310;19.502;2023-09-18T15:08:02;4.43;;;1.60;;
70635;SDS011;58206;47.310;19.502;2023-09-18T15:10:46;5.70;;;3.13;;
70635;SDS011;58206;47.310;19.502;2023-09-18T15:13:31;4.60;;;2.03;;
70635;SDS011;58206;47.310;19.502;2023-09-18T15:16:16;5.97;;;2.38;;
70635;SDS011;58206;47.310;19.502;2023-09-18T15:19:00;4.03;;;1.95;;
70635;SDS011;58206;47.310;19.502;2023-09-18T15:21:48;4.53;;;2.07;;
70635;SDS011;58206;47.310;19.502;2023-09-18T15:24:32;4.60;;;2.13;;
70635;SDS011;58206;47.310;19.502;2023-09-18T15:27:17;4.53;;;2.30;;
70635;SDS011;58206;47.310;19.502;2023-09-18T15:30:05;6.30;;;2.67;;
70635;SDS011;58206;47.310;19.502;2023-09-18T15:32:54;3.72;;;1.73;;
70635;SDS011;58206;47.310;19.502;2023-09-18T15:35:38;10.40;;;2.17;;
70635;SDS011;58206;47.310;19.502;2023-09-18T15:38:23;3.97;;;2.25;;
70635;SDS011;58206;47.310;19.502;2023-09-18T15:41:08;5.55;;;2.17;;
70635;SDS011;58206;47.310;19.502;2023-09-18T15:43:52;5.53;;;2.88;;
70635;SDS011;58206;47.310;19.502;2023-09-18T15:46:36;3.50;;;1.52;;
70635;SDS011;58206;47.310;19.502;2023-09-18T15:49:21;7.47;;;2.97;;
70635;SDS011;58206;47.310;19.502;2023-09-18T15:52:05;3.97;;;2.22;;
70635;SDS011;58206;47.310;19.502;2023-09-18T15:55:00;3.88;;;1.80;;
70635;SDS011;58206;47.310;19.502;2023-09-18T15:57:45;10.10;;;2.80;;
70635;SDS011;58206;47.310;19.502;2023-09-18T16:00:29;6.22;;;1.88;;
70635;SDS011;58206;47.310;19.502;2023-09-18T16:03:14;4.67;;;2.17;;
70635;SDS011;58206;47.310;19.502;2023-09-18T16:05:58;5.47;;;2.72;;
70635;SDS011;58206;47.310;19.502;2023-09-18T16:08:46;5.85;;;3.17;;
70635;SDS011;58206;47.310;19.502;2023-09-18T16:11:31;16.42;;;2.88;;
70635;SDS011;58206;47.310;19.502;2023-09-18T16:14:16;4.60;;;1.73;;
70635;SDS011;58206;47.310;19.502;2023-09-18T16:17:04;4.33;;;2.00;;
70635;SDS011;58206;47.310;19.502;2023-09-18T16:19:48;4.20;;;2.20;;
70635;SDS011;58206;47.310;19.502;2023-09-18T16:22:33;5.28;;;2.00;;
70635;SDS011;58206;47.310;19.502;2023-09-18T16:25:17;3.53;;;1.50;;
70635;SDS011;58206;47.310;19.502;2023-09-18T16:28:21;4.63;;;1.77;;
70635;SDS011;58206;47.310;19.502;2023-09-18T16:31:05;3.93;;;1.87;;
70635;SDS011;58206;47.310;19.502;2023-09-18T16:33:52;3.58;;;1.48;;
70635;SDS011;58206;47.310;19.502;2023-09-18T16:36:37;4.05;;;1.88;;
70635;SDS011;58206;47.310;19.502;2023-09-18T16:39:21;4.78;;;1.52;;
70635;SDS011;58206;47.310;19.502;2023-09-18T16:42:07;4.80;;;1.85;;